Time;durP1;ratioP1;P1;durP2;ratioP2;P2;SDS_P1;SDS_P2;PMS_P1;PMS_P2;Temp;Humidity;BMP_temperature;BMP_pressure;BME280_temperature;BME280_humidity;BME280_pressure;Samples;Min_cycle;Max_cycle;Signal;HPM_P1;HPM_P2
2022/08/19 00:01:42;;;;;;;10.17;8.80;;;22.70;99.90;;;;;;5038629;28;20470;-61
2022/08/19 00:04:12;;;;;;;12.30;8.73;;;22.70;99.90;;;;;;5038894;28;20467;-59
2022/08/19 00:06:40;;;;;;;10.27;9.20;;;22.70;99.90;;;;;;5039281;28;20463;-61
2022/08/19 00:09:11;;;;;;;9.20;8.27;;;22.70;99.90;;;;;;5039025;28;20917;-63
2022/08/19 00:11:39;;;;;;;11.00;9.37;;;22.70;99.90;;;;;;5039113;28;20459;-62
2022/08/19 00:14:09;;;;;;;10.27;8.57;;;22.60;99.90;;;;;;5039610;28;20458;-61
2022/08/19 00:16:36;;;;;;;10.83;9.13;;;22.60;99.90;;;;;;5038569;28;20499;-63
2022/08/19 00:19:03;;;;;;;10.37;8.43;;;22.60;99.90;;;;;;5038555;28;20484;-65
2022/08/19 00:21:31;;;;;;;10.77;9.67;;;22.60;99.90;;;;;;5038713;28;20486;-59
2022/08/19 00:23:58;;;;;;;11.47;10.20;;;22.60;99.90;;;;;;5037995;28;20543;-59
2022/08/19 00:26:26;;;;;;;12.17;10.90;;;22.60;99.90;;;;;;5037557;28;20448;-61
2022/08/19 00:28:53;;;;;;;12.60;10.13;;;22.70;99.90;;;;;;5037651;28;20424;-60
2022/08/19 00:31:20;;;;;;;15.23;10.50;;;22.70;99.90;;;;;;5037426;28;20834;-59
2022/08/19 00:33:49;;;;;;;11.33;8.90;;;22.60;99.90;;;;;;5037239;28;20462;-60
2022/08/19 00:36:16;;;;;;;13.20;9.33;;;22.60;99.90;;;;;;5037765;28;20456;-63
2022/08/19 00:38:43;;;;;;;13.43;10.63;;;22.60;99.90;;;;;;5037434;28;20497;-61
2022/08/19 00:41:11;;;;;;;11.37;9.20;;;22.60;99.90;;;;;;5037599;28;20464;-60
2022/08/19 00:43:40;;;;;;;10.63;9.13;;;22.60;99.90;;;;;;5037268;28;20464;-61
2022/08/19 00:46:07;;;;;;;10.60;9.50;;;22.60;99.90;;;;;;5037202;28;20424;-62
2022/08/19 00:48:35;;;;;;;10.73;9.63;;;22.50;99.90;;;;;;5036573;28;20462;-60
2022/08/19 00:51:02;;;;;;;12.47;9.70;;;22.60;99.90;;;;;;5037317;28;20432;-62
2022/08/19 00:53:33;;;;;;;10.00;9.10;;;22.60;99.90;;;;;;5036549;28;20462;-60
2022/08/19 00:56:04;;;;;;;9.67;8.27;;;22.60;99.90;;;;;;5036439;28;20483;-61
2022/08/19 00:58:34;;;;;;;9.73;8.73;;;22.60;99.90;;;;;;5036409;28;20471;-60
2022/08/19 01:01:03;;;;;;;12.67;9.33;;;22.60;99.90;;;;;;5036268;28;20476;-62
2022/08/19 01:03:30;;;;;;;10.03;8.93;;;22.50;99.90;;;;;;5036520;28;20476;-60
2022/08/19 01:05:57;;;;;;;9.67;8.53;;;22.50;99.90;;;;;;5036143;28;20559;-60
2022/08/19 01:08:24;;;;;;;10.80;9.70;;;22.50;99.90;;;;;;5036308;28;20459;-60
2022/08/19 01:10:55;;;;;;;12.20;10.50;;;22.50;99.90;;;;;;5035429;28;20448;-63
2022/08/19 01:13:25;;;;;;;12.90;10.13;;;22.50;99.90;;;;;;5036615;28;20808;-60
2022/08/19 01:15:57;;;;;;;13.23;9.10;;;22.50;99.90;;;;;;5036566;28;20463;-61
2022/08/19 01:18:27;;;;;;;11.50;10.00;;;22.50;99.90;;;;;;5036338;28;20435;-59
2022/08/19 01:20:57;;;;;;;10.47;9.37;;;22.40;99.90;;;;;;5036553;28;20444;-60
2022/08/19 01:23:42;;;;;;;11.80;9.60;;;22.40;99.90;;;;;;5036463;28;20478;-61
2022/08/19 01:26:10;;;;;;;12.43;10.30;;;22.50;99.90;;;;;;5036325;28;20444;-59
2022/08/19 01:28:38;;;;;;;12.93;11.57;;;22.50;99.90;;;;;;5036208;28;20494;-59
2022/08/19 01:31:06;;;;;;;12.63;10.60;;;22.50;99.90;;;;;;5036264;28;20492;-60
2022/08/19 01:33:33;;;;;;;11.90;10.60;;;22.50;99.90;;;;;;5036284;28;20468;-61
2022/08/19 01:36:06;;;;;;;14.90;10.97;;;22.50;99.90;;;;;;5036346;28;20912;-61
2022/08/19 01:38:37;;;;;;;14.90;11.30;;;22.50;99.90;;;;;;5036013;28;20531;-60
2022/08/19 01:41:04;;;;;;;13.23;10.10;;;22.60;99.90;;;;;;5035704;28;20440;-58
2022/08/19 01:43:31;;;;;;;15.43;10.43;;;22.50;99.90;;;;;;5035714;28;20440;-59
2022/08/19 01:45:57;;;;;;;13.47;9.70;;;22.40;99.90;;;;;;5035829;28;20498;-62
2022/08/19 01:48:24;;;;;;;17.40;10.73;;;22.40;99.90;;;;;;5036111;28;20456;-64
2022/08/19 01:50:51;;;;;;;12.90;10.60;;;22.30;99.90;;;;;;5035677;28;20472;-60
2022/08/19 01:53:18;;;;;;;11.60;10.40;;;22.30;99.90;;;;;;5035387;28;20987;-61
2022/08/19 01:55:48;;;;;;;13.93;10.90;;;22.30;99.90;;;;;;5035640;28;20551;-61
2022/08/19 01:58:20;;;;;;;12.70;11.40;;;22.20;99.90;;;;;;5035894;28;20441;-61
2022/08/19 02:00:47;;;;;;;16.33;11.23;;;22.20;99.90;;;;;;5035432;28;20976;-59
2022/08/19 02:03:14;;;;;;;11.40;10.10;;;22.10;99.90;;;;;;5035487;28;20515;-56
2022/08/19 02:05:42;;;;;;;16.33;11.67;;;22.10;99.90;;;;;;5035452;28;20448;-59
2022/08/19 02:08:09;;;;;;;11.47;9.43;;;22.00;99.90;;;;;;5035200;28;20483;-60
2022/08/19 02:10:40;;;;;;;14.27;10.27;;;21.90;99.90;;;;;;5035418;28;20763;-59
2022/08/19 02:13:09;;;;;;;13.67;10.30;;;21.80;99.90;;;;;;5035410;28;20472;-65
2022/08/19 02:15:37;;;;;;;16.30;11.17;;;21.70;99.90;;;;;;5035374;28;20459;-61
2022/08/19 02:18:05;;;;;;;14.23;11.50;;;21.60;99.90;;;;;;5035168;28;20448;-59
2022/08/19 02:20:32;;;;;;;12.00;10.30;;;21.50;99.90;;;;;;5035684;28;20535;-60
2022/08/19 02:22:58;;;;;;;12.77;9.37;;;21.40;99.90;;;;;;5034476;28;20440;-62
2022/08/19 02:25:25;;;;;;;11.93;10.23;;;21.40;99.90;;;;;;5034991;28;20482;-60
2022/08/19 02:27:53;;;;;;;14.17;10.43;;;21.40;99.90;;;;;;5034889;28;20448;-59
2022/08/19 02:30:22;;;;;;;10.07;8.87;;;21.40;99.90;;;;;;5034907;28;20472;-61
2022/08/19 02:32:49;;;;;;;12.57;9.40;;;21.30;99.90;;;;;;5035345;28;20455;-59
2022/08/19 02:35:16;;;;;;;9.67;8.67;;;21.30;99.90;;;;;;5034755;28;20944;-59
2022/08/19 02:40:37;;;;;;;12.30;9.73;;;21.20;99.90;;;;;;4998968;28;20638;-61
2022/08/19 02:43:05;;;;;;;14.30;10.43;;;21.20;99.90;;;;;;5035228;28;20448;-61
2022/08/19 02:45:35;;;;;;;13.37;10.77;;;21.20;99.90;;;;;;5034500;28;20484;-62
2022/08/19 02:48:06;;;;;;;12.00;10.33;;;21.30;99.90;;;;;;5048812;28;20436;-49
2022/08/19 02:50:38;;;;;;;12.07;10.80;;;21.30;99.90;;;;;;5058339;28;20527;-57
2022/08/19 02:53:05;;;;;;;15.73;12.00;;;21.30;99.90;;;;;;5058417;28;20441;-54
2022/08/19 02:55:32;;;;;;;13.00;10.80;;;21.30;99.90;;;;;;5058055;28;20420;-57
2022/08/19 02:57:59;;;;;;;12.23;10.50;;;21.40;99.90;;;;;;5058168;28;20448;-58
2022/08/19 03:00:29;;;;;;;14.70;11.60;;;21.40;99.90;;;;;;5056503;28;20543;-59
2022/08/19 03:02:58;;;;;;;14.87;12.17;;;21.40;99.90;;;;;;5054682;28;20492;-60
2022/08/19 03:05:27;;;;;;;15.50;12.47;;;21.40;99.90;;;;;;5054560;28;20425;-56
2022/08/19 03:07:55;;;;;;;18.70;14.40;;;21.40;99.90;;;;;;5049890;28;20448;-59
2022/08/19 03:10:22;;;;;;;14.40;12.80;;;21.50;99.90;;;;;;5039552;28;20818;-61
2022/08/19 03:12:49;;;;;;;13.77;12.37;;;21.50;99.90;;;;;;5037236;28;20455;-63
2022/08/19 03:15:16;;;;;;;17.17;9.83;;;21.50;99.90;;;;;;5035949;28;20615;-60
2022/08/19 03:17:43;;;;;;;11.73;9.63;;;21.40;99.90;;;;;;5035193;28;20474;-51
2022/08/19 03:20:12;;;;;;;11.80;10.30;;;21.40;99.90;;;;;;5034101;28;20495;-56
2022/08/19 03:22:38;;;;;;;12.23;11.00;;;21.40;99.90;;;;;;5034500;28;20432;-53
2022/08/19 03:25:06;;;;;;;12.70;10.13;;;21.40;99.90;;;;;;5033977;28;20447;-55
2022/08/19 03:27:33;;;;;;;11.80;10.47;;;21.30;99.90;;;;;;5033928;28;20440;-52
2022/08/19 03:30:00;;;;;;;13.20;10.70;;;21.30;99.90;;;;;;5034488;28;20495;-49
2022/08/19 03:32:27;;;;;;;10.50;9.43;;;21.30;99.90;;;;;;5034329;28;20476;-53
2022/08/19 03:34:54;;;;;;;11.30;9.47;;;21.30;99.90;;;;;;5037546;28;20538;-53
2022/08/19 03:37:22;;;;;;;12.30;10.20;;;21.30;99.90;;;;;;5038341;28;20468;-53
2022/08/19 03:39:49;;;;;;;11.63;10.27;;;21.30;99.90;;;;;;5039034;28;20493;-52
2022/08/19 03:42:16;;;;;;;12.47;10.87;;;21.30;99.90;;;;;;5039148;28;20555;-53
2022/08/19 03:44:44;;;;;;;12.10;10.03;;;21.30;99.90;;;;;;5037950;28;20498;-53
2022/08/19 03:47:15;;;;;;;14.47;11.50;;;21.30;99.90;;;;;;5038026;28;20502;-51
2022/08/19 03:49:42;;;;;;;13.80;9.40;;;21.30;99.90;;;;;;5037853;28;20524;-51
2022/08/19 03:52:09;;;;;;;12.00;10.80;;;21.30;99.90;;;;;;5038105;28;20455;-51
2022/08/19 03:54:38;;;;;;;12.70;10.50;;;21.30;99.90;;;;;;5038691;28;20471;-58
2022/08/19 03:57:05;;;;;;;13.20;9.80;;;21.30;99.90;;;;;;5039038;28;20448;-52
2022/08/19 03:59:35;;;;;;;14.90;11.33;;;21.30;99.90;;;;;;5037966;28;21078;-49
2022/08/19 04:02:09;;;;;;;14.27;11.50;;;21.30;99.90;;;;;;5037540;28;20479;-53
2022/08/19 04:04:37;;;;;;;11.33;9.40;;;21.30;99.90;;;;;;5037784;28;20536;-52
2022/08/19 04:07:04;;;;;;;12.43;10.23;;;21.30;99.90;;;;;;5037984;28;20489;-57
2022/08/19 04:09:31;;;;;;;11.83;9.90;;;21.30;99.90;;;;;;5038945;28;20450;-60
2022/08/19 04:11:59;;;;;;;14.13;11.80;;;21.30;99.90;;;;;;5038245;28;20451;-52
2022/08/19 04:14:29;;;;;;;12.87;9.70;;;21.40;99.90;;;;;;5037494;28;20443;-54
2022/08/19 04:16:57;;;;;;;13.50;10.80;;;21.40;99.90;;;;;;5037740;28;20472;-54
2022/08/19 04:19:24;;;;;;;12.30;10.40;;;21.30;99.90;;;;;;5037650;28;20470;-52
2022/08/19 04:21:53;;;;;;;11.87;10.57;;;21.40;99.90;;;;;;5037473;28;20478;-52
2022/08/19 04:24:21;;;;;;;13.50;10.63;;;21.40;99.90;;;;;;5038489;28;20474;-49
2022/08/19 04:26:49;;;;;;;11.13;9.93;;;21.40;99.90;;;;;;5038842;28;20448;-56
2022/08/19 04:29:21;;;;;;;13.00;11.00;;;21.40;99.90;;;;;;5039324;28;20467;-60
2022/08/19 04:31:50;;;;;;;12.53;11.20;;;21.40;99.90;;;;;;5039181;28;20436;-56
2022/08/19 04:34:22;;;;;;;11.00;9.53;;;21.50;99.90;;;;;;5037356;28;20454;-52
2022/08/19 04:36:50;;;;;;;11.93;10.50;;;21.50;99.90;;;;;;5037372;28;20436;-50
2022/08/19 04:39:19;;;;;;;13.30;11.90;;;21.50;99.90;;;;;;5037078;28;20856;-50
2022/08/19 04:44:33;;;;;;;11.37;10.27;;;21.60;99.90;;;;;;5036841;28;20526;-54
2022/08/19 04:47:01;;;;;;;12.57;10.90;;;21.60;99.90;;;;;;5036776;28;20472;-52
2022/08/19 04:49:28;;;;;;;11.07;9.90;;;21.60;99.90;;;;;;5037104;28;20773;-51
2022/08/19 04:51:56;;;;;;;14.70;11.00;;;21.70;99.90;;;;;;5037031;28;20444;-52
2022/08/19 04:54:24;;;;;;;13.83;11.23;;;21.70;99.90;;;;;;5036768;28;20468;-52
2022/08/19 04:56:52;;;;;;;10.40;9.40;;;21.70;99.90;;;;;;5036958;28;20448;-51
2022/08/19 04:59:19;;;;;;;14.33;10.83;;;21.80;99.90;;;;;;5037816;28;20447;-62
2022/08/19 05:01:49;;;;;;;11.63;10.43;;;21.80;99.90;;;;;;5037481;28;20495;-51
2022/08/19 05:04:18;;;;;;;14.10;10.93;;;21.80;99.90;;;;;;5036697;28;20513;-54
2022/08/19 05:06:46;;;;;;;12.47;10.77;;;21.80;99.90;;;;;;5036328;28;20880;-54
2022/08/19 05:09:14;;;;;;;11.10;9.60;;;21.80;99.90;;;;;;5036450;28;20446;-51
2022/08/19 05:11:41;;;;;;;10.97;9.67;;;21.80;99.90;;;;;;5036635;28;20476;-51
2022/08/19 05:14:09;;;;;;;13.10;10.60;;;21.80;99.90;;;;;;5037270;28;20444;-59
2022/08/19 05:16:36;;;;;;;13.27;10.00;;;21.90;99.90;;;;;;5036725;28;20452;-52
2022/08/19 05:24:45;;;;;;;15.07;11.20;;;22.00;99.90;;;;;;5033856;28;20838;-54
2022/08/19 05:27:12;;;;;;;11.93;10.63;;;22.00;99.90;;;;;;5036118;28;20440;-51
2022/08/19 05:29:39;;;;;;;11.90;10.70;;;22.00;99.90;;;;;;5040411;28;20798;-50
2022/08/19 05:32:08;;;;;;;10.77;9.63;;;22.10;99.90;;;;;;5073746;28;20470;-51
2022/08/19 05:34:37;;;;;;;11.90;10.70;;;22.10;99.90;;;;;;5059189;28;20977;-50
2022/08/19 05:37:07;;;;;;;15.17;10.30;;;22.20;99.90;;;;;;5069304;28;20445;-60
2022/08/19 05:39:35;;;;;;;12.07;10.30;;;22.20;99.90;;;;;;5067880;28;20764;-51
2022/08/19 05:42:06;;;;;;;15.70;10.73;;;22.30;99.90;;;;;;5060775;28;20519;-51
2022/08/19 05:44:35;;;;;;;12.03;10.17;;;22.30;99.90;;;;;;5072397;28;20467;-52
2022/08/19 05:47:04;;;;;;;11.13;9.83;;;22.40;99.90;;;;;;5062966;28;20764;-49
2022/08/19 05:49:32;;;;;;;11.93;10.37;;;22.40;99.90;;;;;;5064473;28;20955;-48
2022/08/19 05:52:03;;;;;;;13.13;9.67;;;22.50;99.90;;;;;;5071628;28;20508;-56
2022/08/19 05:54:30;;;;;;;11.30;9.30;;;22.50;99.90;;;;;;5058384;28;20537;-59
2022/08/19 05:56:58;;;;;;;11.50;10.30;;;22.60;99.90;;;;;;5057488;28;20431;-55
2022/08/19 05:59:25;;;;;;;12.87;11.63;;;22.60;99.90;;;;;;5057277;28;20451;-55
2022/08/19 06:01:54;;;;;;;10.07;9.07;;;22.70;99.90;;;;;;5069356;28;20973;-50
2022/08/19 06:04:22;;;;;;;10.63;9.50;;;22.70;99.90;;;;;;5057467;28;20466;-51
2022/08/19 06:06:51;;;;;;;11.60;10.03;;;22.70;99.90;;;;;;5060624;28;20533;-50
2022/08/19 06:09:20;;;;;;;14.17;12.03;;;22.80;99.90;;;;;;5066211;28;20462;-53
2022/08/19 06:11:48;;;;;;;12.13;10.20;;;22.80;99.90;;;;;;5069140;28;20903;-59
2022/08/19 06:14:20;;;;;;;11.37;9.10;;;22.90;99.90;;;;;;5059295;28;20531;-50
2022/08/19 06:16:47;;;;;;;11.83;10.33;;;22.90;99.90;;;;;;5075432;28;20446;-50
2022/08/19 06:19:17;;;;;;;11.97;10.33;;;22.90;99.90;;;;;;5066142;28;20440;-54
2022/08/19 06:21:47;;;;;;;11.67;10.37;;;23.00;99.90;;;;;;5068109;28;20474;-54
2022/08/19 06:24:16;;;;;;;12.20;10.27;;;23.10;99.90;;;;;;5074229;28;20453;-52
2022/08/19 06:26:47;;;;;;;12.10;10.33;;;23.20;99.90;;;;;;5059971;28;20457;-53
2022/08/19 06:29:17;;;;;;;12.30;10.63;;;23.20;99.90;;;;;;5066894;28;20518;-52
2022/08/19 06:31:46;;;;;;;11.83;10.70;;;23.30;99.90;;;;;;5067939;28;20461;-49
2022/08/19 06:34:13;;;;;;;13.13;11.70;;;23.30;99.90;;;;;;5058881;28;20454;-54
2022/08/19 06:36:43;;;;;;;11.70;10.23;;;23.40;99.90;;;;;;5075606;28;20470;-50
2022/08/19 06:39:12;;;;;;;12.53;10.40;;;23.40;99.90;;;;;;5075020;28;20446;-50
2022/08/19 06:41:42;;;;;;;12.37;9.60;;;23.50;99.90;;;;;;5074914;28;20478;-54
2022/08/19 06:44:11;;;;;;;12.53;10.93;;;23.50;99.90;;;;;;5074893;28;20445;-52
2022/08/19 06:46:39;;;;;;;15.00;12.27;;;23.60;99.90;;;;;;5074794;28;20476;-51
2022/08/19 06:49:11;;;;;;;11.23;10.13;;;23.60;99.90;;;;;;5075146;28;20772;-56
2022/08/19 06:51:38;;;;;;;11.37;10.17;;;23.60;99.90;;;;;;5075233;28;20553;-56
2022/08/19 06:54:05;;;;;;;13.27;11.87;;;23.60;99.90;;;;;;5074666;28;20446;-54
2022/08/19 06:56:34;;;;;;;13.97;12.47;;;23.50;99.90;;;;;;5074647;28;20478;-50
2022/08/19 06:59:02;;;;;;;12.80;11.60;;;23.50;99.90;;;;;;5074944;28;20450;-50
2022/08/19 07:01:30;;;;;;;12.50;11.20;;;23.50;99.90;;;;;;5074273;28;20500;-51
2022/08/19 07:03:57;;;;;;;13.90;12.40;;;23.50;99.90;;;;;;5075846;28;20457;-51
2022/08/19 07:06:24;;;;;;;13.10;11.67;;;23.50;99.90;;;;;;5075223;28;20474;-53
2022/08/19 07:08:51;;;;;;;13.97;12.03;;;23.50;99.90;;;;;;5073912;28;20456;-51
2022/08/19 07:11:20;;;;;;;13.53;10.90;;;23.50;99.90;;;;;;5074593;28;20470;-52
2022/08/19 07:13:48;;;;;;;14.77;12.60;;;23.60;99.90;;;;;;5074205;28;20459;-49
2022/08/19 07:16:19;;;;;;;12.70;11.13;;;23.60;99.90;;;;;;5074085;28;20943;-56
2022/08/19 07:18:48;;;;;;;13.30;10.97;;;23.60;99.90;;;;;;5075553;28;20474;-53
2022/08/19 07:21:16;;;;;;;16.30;11.90;;;23.80;99.90;;;;;;5075473;28;20497;-53
2022/08/19 07:23:44;;;;;;;14.33;12.83;;;23.90;99.90;;;;;;5075541;28;20469;-54
2022/08/19 07:26:13;;;;;;;16.47;10.90;;;24.00;99.90;;;;;;5074715;28;20938;-52
2022/08/19 07:28:43;;;;;;;17.10;11.87;;;24.20;99.90;;;;;;5074482;28;20500;-51
2022/08/19 07:31:11;;;;;;;12.03;10.83;;;24.20;99.90;;;;;;5073885;28;20477;-51
2022/08/19 07:33:39;;;;;;;12.10;10.83;;;24.30;99.90;;;;;;5074689;28;20453;-53
2022/08/19 07:36:10;;;;;;;13.53;12.10;;;24.30;99.90;;;;;;5074816;28;20509;-53
2022/08/19 07:38:37;;;;;;;12.77;11.47;;;24.30;99.90;;;;;;5074106;28;20427;-51
2022/08/19 07:41:03;;;;;;;14.37;11.83;;;24.30;99.90;;;;;;5073774;28;20501;-51
2022/08/19 07:43:31;;;;;;;12.90;11.23;;;24.30;99.90;;;;;;5074295;28;20446;-52
2022/08/19 07:45:58;;;;;;;17.07;10.77;;;24.30;99.90;;;;;;5073753;28;20535;-52
2022/08/19 07:48:25;;;;;;;14.77;11.97;;;24.30;99.90;;;;;;5074301;28;20458;-55
2022/08/19 07:50:54;;;;;;;13.13;11.83;;;24.30;99.90;;;;;;5074941;28;20520;-52
2022/08/19 07:53:22;;;;;;;13.77;12.13;;;24.30;99.90;;;;;;5074230;28;20466;-51
2022/08/19 07:55:50;;;;;;;12.43;11.13;;;24.40;99.90;;;;;;5073973;28;20470;-51
2022/08/19 07:58:20;;;;;;;16.23;14.53;;;24.40;99.90;;;;;;5073793;28;20906;-54
2022/08/19 08:00:49;;;;;;;13.37;11.87;;;24.50;99.90;;;;;;5073892;28;20493;-53
2022/08/19 08:03:19;;;;;;;13.43;12.03;;;24.50;99.90;;;;;;5073932;28;20458;-48
2022/08/19 08:11:20;;;;;;;13.30;11.97;;;24.40;99.90;;;;;;5073810;28;20870;-50
2022/08/19 08:13:48;;;;;;;79.00;55.57;;;24.30;99.90;;;;;;5073790;28;20451;-52
2022/08/19 08:16:15;;;;;;;33.07;25.10;;;24.30;99.90;;;;;;5073712;28;20505;-50
2022/08/19 08:18:43;;;;;;;17.07;15.17;;;24.30;99.90;;;;;;5073956;28;20445;-52
2022/08/19 08:21:10;;;;;;;15.67;13.50;;;24.20;99.90;;;;;;5078017;28;20521;-53
2022/08/19 08:23:38;;;;;;;14.97;13.20;;;24.20;99.90;;;;;;5078957;28;20430;-49
2022/08/19 08:26:05;;;;;;;15.47;13.80;;;24.20;99.90;;;;;;5077432;28;20792;-54
2022/08/19 08:28:32;;;;;;;15.47;11.70;;;24.30;99.90;;;;;;5077631;28;20438;-51
2022/08/19 08:30:59;;;;;;;15.80;12.87;;;24.30;99.90;;;;;;5077080;28;20464;-50
2022/08/19 08:33:29;;;;;;;14.20;12.70;;;24.40;99.90;;;;;;5077496;28;20442;-52
2022/08/19 08:35:57;;;;;;;15.10;12.70;;;24.50;99.90;;;;;;5077327;28;20438;-55
2022/08/19 08:38:23;;;;;;;14.90;12.87;;;24.60;99.90;;;;;;5078300;28;20482;-51
2022/08/19 08:40:58;;;;;;;15.17;13.10;;;24.70;99.90;;;;;;5076852;28;20877;-55
2022/08/19 08:43:30;;;;;;;16.13;12.97;;;24.90;99.90;;;;;;5077392;28;20513;-53
2022/08/19 08:46:02;;;;;;;21.60;14.20;;;25.00;99.90;;;;;;5077429;28;20514;-58
2022/08/19 08:48:38;;;;;;;16.17;14.57;;;25.10;99.90;;;;;;5078260;28;20507;-57
2022/08/19 08:51:11;;;;;;;13.93;12.53;;;25.30;99.90;;;;;;5078035;28;20422;-55
2022/08/19 08:53:39;;;;;;;14.90;13.27;;;25.30;99.90;;;;;;5078687;28;20466;-50
2022/08/19 08:56:12;;;;;;;14.80;13.20;;;25.30;99.90;;;;;;5077104;28;20454;-52
2022/08/19 08:58:48;;;;;;;16.73;13.90;;;25.30;99.90;;;;;;5076550;28;20971;-52
2022/08/19 09:01:15;;;;;;;16.20;13.57;;;25.30;99.90;;;;;;5076507;28;20481;-53
2022/08/19 09:03:45;;;;;;;18.53;14.03;;;25.30;99.90;;;;;;5076834;28;20446;-49
2022/08/19 09:06:19;;;;;;;16.20;14.03;;;25.20;99.90;;;;;;5076645;28;20461;-55
2022/08/19 09:08:57;;;;;;;15.67;13.97;;;25.10;99.90;;;;;;5078481;28;20453;-54
2022/08/19 09:11:37;;;;;;;16.47;14.67;;;25.10;99.90;;;;;;5076523;28;20476;-54
2022/08/19 09:14:12;;;;;;;17.40;15.10;;;25.00;99.90;;;;;;5076340;28;20891;-52
2022/08/19 09:16:40;;;;;;;17.20;14.80;;;25.00;99.90;;;;;;5076328;28;20476;-48
2022/08/19 09:19:08;;;;;;;15.30;13.70;;;25.00;99.90;;;;;;5077448;28;20533;-56
2022/08/19 09:21:36;;;;;;;15.13;13.40;;;25.10;99.90;;;;;;5076078;28;20500;-53
2022/08/19 09:24:04;;;;;;;16.73;15.00;;;25.10;99.90;;;;;;5076448;28;20451;-54
2022/08/19 09:26:34;;;;;;;16.50;14.30;;;25.10;99.90;;;;;;5076387;28;20470;-52
2022/08/19 09:29:01;;;;;;;14.50;13.00;;;25.20;99.90;;;;;;5076123;28;20431;-49
2022/08/19 09:31:31;;;;;;;14.47;12.67;;;25.40;99.90;;;;;;5075715;28;20462;-61
2022/08/19 09:33:59;;;;;;;16.53;14.23;;;25.50;99.90;;;;;;5078138;28;20537;-53
2022/08/19 09:36:28;;;;;;;15.53;13.97;;;25.70;99.90;;;;;;5076362;28;20462;-51
2022/08/19 09:38:56;;;;;;;15.97;13.33;;;25.80;99.90;;;;;;5075908;28;20848;-51
2022/08/19 09:41:25;;;;;;;15.77;12.90;;;25.90;99.90;;;;;;5075638;28;20485;-55
2022/08/19 09:43:56;;;;;;;16.00;14.43;;;26.00;99.90;;;;;;5075773;28;20751;-55
2022/08/19 09:46:24;;;;;;;15.80;12.63;;;26.10;99.90;;;;;;5075586;28;20956;-56
2022/08/19 09:48:52;;;;;;;16.23;14.60;;;26.20;99.90;;;;;;5076604;28;20441;-54
2022/08/19 09:51:21;;;;;;;16.00;14.30;;;26.20;99.90;;;;;;5075914;28;20477;-53
2022/08/19 09:53:50;;;;;;;15.40;13.90;;;26.20;99.90;;;;;;5075528;28;20443;-50
2022/08/19 09:56:21;;;;;;;16.77;15.07;;;26.20;99.90;;;;;;5075760;28;20508;-51
2022/08/19 09:58:48;;;;;;;15.97;14.43;;;26.20;99.90;;;;;;5075987;28;20461;-54
2022/08/19 10:01:22;;;;;;;16.20;13.40;;;26.20;99.90;;;;;;5075743;28;20493;-50
2022/08/19 10:03:51;;;;;;;13.93;12.43;;;26.10;99.90;;;;;;5076844;28;20430;-51
2022/08/19 10:06:18;;;;;;;14.50;13.00;;;26.00;99.90;;;;;;5075662;28;20446;-50
2022/08/19 10:08:46;;;;;;;14.60;12.63;;;25.90;99.90;;;;;;5075763;28;20442;-51
2022/08/19 10:11:15;;;;;;;16.03;13.60;;;25.90;99.90;;;;;;5075903;28;20490;-56
2022/08/19 10:13:44;;;;;;;12.47;11.23;;;25.70;99.90;;;;;;5076294;28;20460;-59
2022/08/19 10:16:13;;;;;;;16.30;13.17;;;25.60;99.90;;;;;;5076546;28;20442;-54
2022/08/19 10:18:43;;;;;;;14.07;12.53;;;25.50;99.90;;;;;;5076624;28;20438;-52
2022/08/19 10:21:13;;;;;;;14.30;12.33;;;25.50;99.90;;;;;;5075409;28;20438;-53
2022/08/19 10:23:43;;;;;;;13.17;11.83;;;25.40;99.90;;;;;;5075425;28;20836;-54
2022/08/19 10:26:10;;;;;;;14.33;12.80;;;25.40;99.90;;;;;;5075413;28;20442;-51
2022/08/19 10:28:38;;;;;;;15.33;13.73;;;25.40;99.90;;;;;;5075232;28;20442;-49
2022/08/19 10:31:06;;;;;;;13.77;12.37;;;25.40;99.90;;;;;;5075119;28;20450;-59
2022/08/19 10:33:34;;;;;;;14.00;12.60;;;25.50;99.90;;;;;;5076455;28;20537;-54
2022/08/19 10:36:04;;;;;;;16.87;15.17;;;25.60;99.90;;;;;;5074991;28;20469;-50
2022/08/19 10:38:31;;;;;;;14.77;12.13;;;25.60;99.90;;;;;;5074973;28;20478;-53
2022/08/19 10:40:58;;;;;;;13.50;12.00;;;25.60;99.90;;;;;;5074958;28;20449;-52
2022/08/19 10:43:25;;;;;;;14.20;12.70;;;25.50;99.90;;;;;;5073968;28;20486;-55
2022/08/19 10:45:59;;;;;;;13.07;11.83;;;25.40;99.90;;;;;;5075087;28;20599;-59
2022/08/19 10:48:25;;;;;;;11.87;10.67;;;25.30;99.90;;;;;;5076605;28;20474;-54
2022/08/19 10:53:38;;;;;;;13.93;11.90;;;25.10;99.90;;;;;;5074419;28;20507;-54
2022/08/19 10:58:49;;;;;;;13.67;12.23;;;24.90;99.90;;;;;;5074466;28;20507;-53
2022/08/19 11:01:16;;;;;;;12.27;11.00;;;24.90;99.90;;;;;;5074354;28;20486;-52
2022/08/19 11:03:45;;;;;;;16.30;12.07;;;24.80;99.90;;;;;;5075401;28;20466;-52
2022/08/19 11:06:12;;;;;;;13.13;11.67;;;24.80;99.90;;;;;;5075692;28;20513;-52
2022/08/19 11:08:41;;;;;;;12.70;11.40;;;24.70;99.90;;;;;;5074732;28;20443;-51
2022/08/19 11:11:09;;;;;;;16.07;12.57;;;24.70;99.90;;;;;;5074737;28;20454;-53
2022/08/19 11:13:39;;;;;;;17.07;11.60;;;24.70;99.90;;;;;;5074562;28;20565;-53
2022/08/19 11:16:09;;;;;;;15.63;11.83;;;24.70;99.90;;;;;;5074238;28;20446;-52
2022/08/19 11:18:38;;;;;;;14.03;12.40;;;24.70;99.90;;;;;;5074357;28;20466;-54
2022/08/19 11:21:10;;;;;;;13.37;12.07;;;24.70;99.90;;;;;;5074321;28;20457;-56
2022/08/19 11:23:37;;;;;;;13.10;11.77;;;24.70;99.90;;;;;;5075314;28;20492;-54
2022/08/19 11:26:06;;;;;;;14.37;11.50;;;24.70;99.90;;;;;;5074348;28;20504;-50
2022/08/19 11:28:33;;;;;;;12.70;11.40;;;24.70;99.90;;;;;;5074565;28;20501;-54
2022/08/19 11:31:01;;;;;;;11.63;10.53;;;24.80;99.90;;;;;;5074457;28;20525;-52
2022/08/19 11:33:28;;;;;;;12.73;11.53;;;24.80;99.90;;;;;;5074613;28;20462;-54
2022/08/19 11:35:55;;;;;;;12.63;11.17;;;24.70;99.90;;;;;;5075011;28;20795;-56
2022/08/19 11:38:22;;;;;;;12.87;11.50;;;24.70;99.90;;;;;;5074451;28;20458;-52
2022/08/19 11:40:56;;;;;;;16.17;12.53;;;24.60;99.90;;;;;;5074450;28;20570;-56
2022/08/19 11:43:26;;;;;;;13.10;11.70;;;24.60;99.90;;;;;;5074280;28;20517;-55
2022/08/19 11:45:53;;;;;;;12.33;11.03;;;24.60;99.90;;;;;;5074239;28;20450;-55
2022/08/19 11:48:22;;;;;;;12.27;10.97;;;24.70;99.90;;;;;;5074266;28;20557;-55
2022/08/19 11:50:49;;;;;;;12.63;10.03;;;24.80;99.90;;;;;;5074100;28;20490;-55
2022/08/19 11:53:19;;;;;;;11.80;10.70;;;24.90;99.90;;;;;;5074064;28;20470;-55
2022/08/19 11:55:46;;;;;;;11.20;10.00;;;24.90;99.90;;;;;;5077260;28;20511;-52
2022/08/19 11:58:13;;;;;;;12.00;10.63;;;25.00;99.90;;;;;;5078638;28;20498;-55
2022/08/19 12:00:42;;;;;;;10.87;9.77;;;25.00;99.90;;;;;;5078237;28;20450;-53
2022/08/19 12:03:09;;;;;;;11.83;10.60;;;25.10;99.90;;;;;;5077628;28;20489;-55
2022/08/19 12:05:38;;;;;;;14.53;10.73;;;25.00;99.90;;;;;;5077594;28;20447;-53
2022/08/19 12:08:05;;;;;;;11.37;10.17;;;24.90;99.90;;;;;;5077788;28;20529;-56
2022/08/19 12:10:32;;;;;;;13.60;12.20;;;24.90;99.90;;;;;;5077790;28;20477;-53
2022/08/19 12:13:00;;;;;;;10.47;9.47;;;24.90;99.90;;;;;;5077442;28;20497;-55
2022/08/19 12:15:28;;;;;;;9.87;8.67;;;24.80;99.90;;;;;;5077325;28;20438;-54
2022/08/19 12:17:57;;;;;;;11.20;10.00;;;24.60;99.90;;;;;;5077744;28;20473;-55
2022/08/19 12:20:26;;;;;;;9.90;8.90;;;24.60;99.90;;;;;;5077683;28;20449;-55
2022/08/19 12:22:53;;;;;;;10.67;9.23;;;24.60;99.90;;;;;;5077473;28;20854;-53
2022/08/19 12:25:20;;;;;;;14.07;9.67;;;24.70;99.90;;;;;;5077482;28;20472;-54
2022/08/19 12:27:47;;;;;;;10.60;9.20;;;24.80;99.90;;;;;;5077483;28;20527;-53
2022/08/19 12:30:19;;;;;;;8.80;7.90;;;24.90;99.90;;;;;;5077350;28;20768;-53
2022/08/19 12:32:46;;;;;;;9.57;8.60;;;25.10;99.90;;;;;;5078178;28;20438;-58
2022/08/19 12:35:14;;;;;;;9.40;8.47;;;25.30;99.90;;;;;;5077351;28;20438;-57
2022/08/19 12:37:44;;;;;;;11.83;9.43;;;25.50;99.90;;;;;;5076830;28;20941;-51
2022/08/19 12:40:12;;;;;;;14.10;8.93;;;25.50;99.90;;;;;;5077262;28;20485;-55
2022/08/19 12:42:41;;;;;;;9.67;8.57;;;25.50;99.90;;;;;;5077168;28;20517;-55
2022/08/19 12:45:09;;;;;;;9.40;8.47;;;25.30;99.90;;;;;;5077147;28;20445;-54
2022/08/19 12:47:36;;;;;;;9.80;8.80;;;25.30;99.90;;;;;;5077141;28;20461;-54
2022/08/19 12:50:04;;;;;;;10.37;9.37;;;25.30;99.90;;;;;;5077025;28;20454;-54
2022/08/19 12:52:32;;;;;;;9.67;8.67;;;25.40;99.90;;;;;;5076862;28;20438;-56
2022/08/19 12:54:59;;;;;;;9.50;8.23;;;25.40;99.90;;;;;;5076857;28;20918;-59
2022/08/19 12:57:28;;;;;;;10.43;8.77;;;25.60;99.90;;;;;;5076903;28;20459;-56
2022/08/19 12:59:55;;;;;;;8.63;7.77;;;25.80;99.90;;;;;;5076826;28;20970;-54